createdAt,value
2023-01-19T00:01:27.900Z,4.47
2023-01-19T00:03:55.870Z,5.17
2023-01-19T00:06:23.809Z,3.33
2023-01-19T00:08:51.771Z,6.00
2023-01-19T00:11:19.785Z,5.93
2023-01-19T00:13:51.022Z,7.27
2023-01-19T00:16:23.177Z,6.37
2023-01-19T00:18:52.688Z,6.10
2023-01-19T00:21:22.473Z,5.33
2023-01-19T00:23:52.701Z,4.60
2023-01-19T00:26:22.162Z,5.03
2023-01-19T00:28:51.061Z,4.93
2023-01-19T00:31:21.924Z,4.37
2023-01-19T00:33:52.787Z,4.77
2023-01-19T00:36:20.941Z,4.53
2023-01-19T00:38:48.891Z,3.93
2023-01-19T00:41:17.345Z,3.60
2023-01-19T00:43:44.400Z,4.23
2023-01-19T00:46:12.369Z,4.83
2023-01-19T00:48:41.669Z,4.40
2023-01-19T00:51:09.640Z,4.70
2023-01-19T00:53:37.559Z,4.83
2023-01-19T00:56:05.849Z,5.57
2023-01-19T00:58:33.992Z,4.87
2023-01-19T01:01:03.817Z,4.03
2023-01-19T01:03:33.392Z,3.80
2023-01-19T01:06:03.740Z,5.33
2023-01-19T01:08:31.806Z,4.57
2023-01-19T01:10:59.882Z,3.90
2023-01-19T01:13:28.999Z,3.50
2023-01-19T01:15:57.899Z,3.30
2023-01-19T01:18:26.474Z,4.40
2023-01-19T01:20:56.268Z,4.43
2023-01-19T01:23:25.603Z,4.20
2023-01-19T01:25:53.556Z,4.07
2023-01-19T01:28:21.564Z,3.80
2023-01-19T01:30:49.573Z,4.80
2023-01-19T01:33:40.016Z,4.30
2023-01-19T01:36:06.207Z,3.80
2023-01-19T01:38:35.530Z,4.27
2023-01-19T01:41:03.627Z,4.40
2023-01-19T01:43:45.124Z,4.73
2023-01-19T01:46:15.768Z,3.93
2023-01-19T01:48:50.290Z,3.23
2023-01-19T01:51:27.039Z,3.80
2023-01-19T01:54:09.803Z,3.40
2023-01-19T01:56:40.198Z,3.30
2023-01-19T01:59:13.493Z,3.23
2023-01-19T02:01:58.900Z,3.20
2023-01-19T02:04:28.037Z,3.90
2023-01-19T02:07:13.591Z,3.47
2023-01-19T02:10:00.260Z,3.80
2023-01-19T02:12:46.543Z,3.87
2023-01-19T02:15:20.219Z,4.27
2023-01-19T02:17:48.755Z,3.40
2023-01-19T02:20:18.532Z,2.90
2023-01-19T02:22:50.112Z,3.67
2023-01-19T02:25:21.405Z,4.20
2023-01-19T02:27:51.311Z,2.97
2023-01-19T02:30:20.272Z,3.33
2023-01-19T02:32:48.286Z,3.37
2023-01-19T02:35:16.725Z,3.17
2023-01-19T02:37:46.261Z,2.70
2023-01-19T02:40:16.511Z,3.27
2023-01-19T02:42:49.579Z,3.00
2023-01-19T02:45:21.899Z,3.50
2023-01-19T02:47:52.090Z,2.80
2023-01-19T02:50:38.873Z,3.23
2023-01-19T02:53:21.368Z,3.17
2023-01-19T02:55:55.047Z,3.30
2023-01-19T02:58:34.784Z,2.93
2023-01-19T03:01:14.100Z,3.33
2023-01-19T03:03:53.602Z,3.00
2023-01-19T03:06:34.885Z,3.40
2023-01-19T03:09:10.071Z,3.70
2023-01-19T03:11:43.705Z,3.10
2023-01-19T03:14:18.219Z,3.83
2023-01-19T03:16:49.019Z,3.53
2023-01-19T03:19:23.431Z,3.40
2023-01-19T03:21:56.321Z,3.83
2023-01-19T03:24:28.204Z,3.90
2023-01-19T03:27:01.333Z,3.83
2023-01-19T03:29:35.261Z,3.67
2023-01-19T03:32:09.258Z,3.37
2023-01-19T03:34:40.401Z,3.80
2023-01-19T03:37:11.616Z,3.40
2023-01-19T03:39:39.920Z,2.90
2023-01-19T03:42:12.667Z,4.00
2023-01-19T03:44:45.273Z,3.30
2023-01-19T03:47:18.518Z,2.97
2023-01-19T03:49:49.048Z,3.23
2023-01-19T03:52:20.869Z,3.40
2023-01-19T03:54:49.488Z,4.00
2023-01-19T03:57:17.424Z,4.10
2023-01-19T03:59:46.735Z,3.60
2023-01-19T04:02:15.013Z,4.30
2023-01-19T04:04:43.139Z,3.83
2023-01-19T04:07:11.798Z,4.43
2023-01-19T04:09:39.755Z,4.17
2023-01-19T04:12:14.918Z,5.20
2023-01-19T04:14:42.952Z,5.23
2023-01-19T04:17:12.217Z,5.73
2023-01-19T04:19:45.179Z,5.13
2023-01-19T04:22:13.053Z,5.23
2023-01-19T04:24:40.971Z,5.10
2023-01-19T04:27:09.367Z,5.00
2023-01-19T04:29:37.309Z,5.20
2023-01-19T04:32:05.664Z,4.90
2023-01-19T04:34:35.320Z,5.27
2023-01-19T04:37:05.028Z,5.57
2023-01-19T04:39:32.947Z,6.40
2023-01-19T04:42:00.903Z,6.63
2023-01-19T04:44:29.215Z,5.37
2023-01-19T04:46:57.209Z,6.10
2023-01-19T04:49:25.284Z,5.30
2023-01-19T04:51:55.806Z,6.47
2023-01-19T04:54:23.923Z,5.30
2023-01-19T04:56:52.062Z,5.33
2023-01-19T04:59:21.348Z,6.50
2023-01-19T05:01:49.322Z,5.20
2023-01-19T05:04:17.603Z,6.00
2023-01-19T05:06:45.690Z,6.83
2023-01-19T05:09:15.562Z,6.10
2023-01-19T05:11:43.578Z,5.40
2023-01-19T05:14:11.715Z,5.27
2023-01-19T05:16:39.683Z,5.73
2023-01-19T05:19:07.680Z,4.83
2023-01-19T05:21:35.547Z,5.33
2023-01-19T05:24:04.127Z,5.47
2023-01-19T05:26:33.504Z,4.43
2023-01-19T05:29:01.354Z,5.57
2023-01-19T05:31:29.363Z,5.30
2023-01-19T05:33:57.489Z,6.27
2023-01-19T05:36:25.463Z,5.67
2023-01-19T05:38:53.406Z,4.57
2023-01-19T05:41:21.302Z,5.60
2023-01-19T05:43:50.546Z,4.37
2023-01-19T05:46:18.469Z,5.23
2023-01-19T05:48:46.439Z,5.83
2023-01-19T05:51:15.257Z,5.43
2023-01-19T05:53:43.414Z,5.30
2023-01-19T05:56:12.257Z,5.80
2023-01-19T05:58:40.656Z,6.00
2023-01-19T06:01:12.130Z,5.37
2023-01-19T06:03:41.019Z,5.07
2023-01-19T06:06:09.190Z,6.77
2023-01-19T06:08:37.574Z,5.87
2023-01-19T06:11:07.080Z,6.17
2023-01-19T06:13:35.570Z,5.60
2023-01-19T06:16:05.395Z,5.87
2023-01-19T06:18:35.107Z,6.90
2023-01-19T06:21:05.740Z,5.27
2023-01-19T06:23:35.023Z,5.60
2023-01-19T06:26:03.381Z,5.77
2023-01-19T06:28:31.414Z,4.93
2023-01-19T06:30:59.421Z,6.40
2023-01-19T06:33:27.880Z,6.10
2023-01-19T06:35:57.690Z,7.07
2023-01-19T06:38:25.750Z,5.97
2023-01-19T06:40:55.036Z,5.40
2023-01-19T06:43:23.472Z,5.70
2023-01-19T06:45:51.952Z,7.37
2023-01-19T06:48:20.501Z,6.03
2023-01-19T06:50:48.928Z,6.10
2023-01-19T06:53:20.808Z,6.53
2023-01-19T06:55:48.807Z,6.40
2023-01-19T06:58:16.941Z,6.53
2023-01-19T07:00:45.207Z,5.50
2023-01-19T07:03:20.612Z,5.50
2023-01-19T07:05:49.978Z,6.70
2023-01-19T07:08:19.397Z,4.57
2023-01-19T07:11:26.172Z,5.43
2023-01-19T07:13:36.213Z,5.93
2023-01-19T07:16:07.481Z,6.20
2023-01-19T07:18:36.472Z,6.70
2023-01-19T07:21:05.173Z,6.50
2023-01-19T07:23:35.049Z,6.57
2023-01-19T07:26:05.833Z,6.43
2023-01-19T07:28:33.916Z,6.93
2023-01-19T07:31:02.009Z,5.50
2023-01-19T07:33:30.173Z,7.13
2023-01-19T07:35:58.550Z,6.27
2023-01-19T07:38:26.638Z,5.13
2023-01-19T07:41:02.567Z,5.53
2023-01-19T07:43:30.870Z,6.40
2023-01-19T07:45:59.291Z,6.60
2023-01-19T07:48:27.318Z,6.40
2023-01-19T07:51:00.219Z,4.80
2023-01-19T07:53:28.188Z,6.70
2023-01-19T07:55:56.895Z,6.83
2023-01-19T07:58:26.486Z,5.50
2023-01-19T08:00:54.997Z,4.77
2023-01-19T08:03:23.255Z,6.30
2023-01-19T08:05:53.118Z,5.83
2023-01-19T08:08:21.327Z,5.80
2023-01-19T08:10:51.756Z,5.17
2023-01-19T08:13:19.843Z,5.57
2023-01-19T08:15:52.369Z,7.07
2023-01-19T08:18:21.187Z,6.22
2023-01-19T08:20:49.301Z,7.28
2023-01-19T08:23:18.408Z,7.45
2023-01-19T08:26:20.741Z,6.22
2023-01-19T08:28:48.655Z,6.80
2023-01-19T08:31:21.708Z,7.55
2023-01-19T08:33:51.120Z,6.00
2023-01-19T08:36:19.200Z,5.72
2023-01-19T08:38:47.606Z,8.43
2023-01-19T08:41:16.516Z,7.72
2023-01-19T08:43:45.541Z,6.25
2023-01-19T08:46:16.993Z,6.45
2023-01-19T08:48:48.285Z,6.18
2023-01-19T08:51:16.790Z,6.00
2023-01-19T08:53:45.079Z,6.63
2023-01-19T08:56:14.043Z,5.68
2023-01-19T08:58:43.011Z,6.10
2023-01-19T09:01:14.695Z,6.35
2023-01-19T09:03:42.811Z,5.95
2023-01-19T09:06:14.641Z,5.05
2023-01-19T09:08:42.505Z,6.97
2023-01-19T09:11:13.239Z,4.50
2023-01-19T09:13:41.786Z,6.03
2023-01-19T09:16:12.731Z,6.50
2023-01-19T09:18:41.156Z,5.40
2023-01-19T09:21:10.275Z,6.18
2023-01-19T09:23:39.593Z,6.45
2023-01-19T09:26:08.659Z,4.55
2023-01-19T09:28:36.631Z,5.13
2023-01-19T09:31:07.695Z,6.60
2023-01-19T09:33:36.425Z,5.03
2023-01-19T09:36:04.632Z,4.85
2023-01-19T09:38:33.111Z,4.95
2023-01-19T09:41:04.362Z,4.35
2023-01-19T09:43:38.588Z,4.50
2023-01-19T09:46:12.510Z,5.03
2023-01-19T09:48:47.170Z,4.95
2023-01-19T09:51:19.505Z,4.68
2023-01-19T09:53:56.453Z,6.10
2023-01-19T09:56:26.308Z,4.40
2023-01-19T09:58:54.482Z,4.65
2023-01-19T10:01:36.434Z,4.95
2023-01-19T10:04:27.117Z,5.00
2023-01-19T10:07:04.941Z,4.78
2023-01-19T10:09:38.171Z,3.75
2023-01-19T10:12:18.447Z,4.60
2023-01-19T10:14:54.905Z,4.32
2023-01-19T10:17:38.270Z,4.35
2023-01-19T10:20:18.124Z,4.15
2023-01-19T10:22:51.968Z,4.22
2023-01-19T10:25:23.918Z,3.78
2023-01-19T10:27:53.270Z,4.53
2023-01-19T10:30:24.029Z,3.83
2023-01-19T10:32:53.805Z,3.20
2023-01-19T10:35:25.228Z,4.30
2023-01-19T10:37:56.453Z,3.72
2023-01-19T10:40:32.095Z,3.83
2023-01-19T10:43:02.203Z,4.05
2023-01-19T10:45:32.565Z,3.83
2023-01-19T10:48:06.761Z,3.63
2023-01-19T10:50:39.981Z,3.13
2023-01-19T10:53:20.565Z,3.70
2023-01-19T10:55:48.448Z,4.18
2023-01-19T10:58:31.030Z,3.28
2023-01-19T11:01:15.337Z,4.00
2023-01-19T11:03:43.411Z,3.95
2023-01-19T11:06:22.985Z,3.88
2023-01-19T11:08:52.949Z,3.60
2023-01-19T11:11:22.765Z,3.30
2023-01-19T11:14:10.912Z,3.33
2023-01-19T11:16:40.217Z,3.40
2023-01-19T11:19:20.760Z,3.43
2023-01-19T11:21:49.267Z,3.70
2023-01-19T11:24:18.025Z,3.90
2023-01-19T11:26:49.298Z,3.40
2023-01-19T11:29:21.998Z,3.90
2023-01-19T11:34:39.097Z,3.83
2023-01-19T11:37:26.460Z,3.57
2023-01-19T11:39:57.111Z,3.73
2023-01-19T11:42:26.506Z,3.40
2023-01-19T11:45:04.294Z,3.67
2023-01-19T11:47:39.515Z,3.37
2023-01-19T11:50:14.621Z,3.53
2023-01-19T11:52:46.326Z,3.00
2023-01-19T11:55:21.213Z,3.03
2023-01-19T11:57:54.284Z,3.07
2023-01-19T12:00:30.268Z,2.90
2023-01-19T12:03:04.173Z,2.63
2023-01-19T12:05:35.419Z,2.67
2023-01-19T12:08:07.966Z,2.97
2023-01-19T12:10:43.851Z,3.00
2023-01-19T12:13:21.811Z,2.87
2023-01-19T12:15:57.905Z,3.20
2023-01-19T12:18:29.801Z,3.03
2023-01-19T12:20:58.907Z,3.40
2023-01-19T12:23:37.491Z,2.37
2023-01-19T12:26:30.083Z,3.30
2023-01-19T12:29:01.567Z,2.67
2023-01-19T12:31:31.180Z,2.57
2023-01-19T12:34:40.621Z,3.30
2023-01-19T12:37:25.780Z,2.43
2023-01-19T12:39:54.224Z,2.80
2023-01-19T12:42:22.289Z,2.63
2023-01-19T12:44:52.821Z,3.00
2023-01-19T12:47:24.499Z,2.70
2023-01-19T12:49:59.589Z,2.57
2023-01-19T12:52:34.768Z,2.17
2023-01-19T12:55:21.062Z,2.27
2023-01-19T12:58:00.221Z,2.83
2023-01-19T13:00:40.024Z,2.50
2023-01-19T13:03:46.563Z,2.60
2023-01-19T13:06:14.477Z,2.40
2023-01-19T13:09:00.820Z,2.40
2023-01-19T13:11:34.133Z,2.30
2023-01-19T13:14:35.494Z,2.57
2023-01-19T13:17:19.217Z,2.20
2023-01-19T13:20:03.240Z,2.60
2023-01-19T13:23:15.843Z,2.30
2023-01-19T13:26:00.171Z,2.60
2023-01-19T13:28:36.660Z,2.73
2023-01-19T13:31:07.171Z,3.00
2023-01-19T13:33:48.514Z,2.40
2023-01-19T13:36:26.905Z,2.43
2023-01-19T13:38:56.518Z,2.80
2023-01-19T13:41:27.053Z,3.23
2023-01-19T13:44:01.420Z,2.63
2023-01-19T13:46:30.098Z,2.30
2023-01-19T13:49:01.205Z,2.80
2023-01-19T13:51:30.766Z,2.53
2023-01-19T13:54:02.805Z,2.40
2023-01-19T13:56:31.678Z,2.67
2023-01-19T13:59:02.281Z,2.97
2023-01-19T14:01:32.168Z,2.30
2023-01-19T14:04:00.941Z,2.90
2023-01-19T14:06:37.238Z,2.60
2023-01-19T14:09:19.057Z,2.33
2023-01-19T14:11:48.668Z,2.43
2023-01-19T14:14:32.825Z,1.97
2023-01-19T14:17:00.865Z,2.70
2023-01-19T14:19:29.028Z,2.03
2023-01-19T14:22:03.978Z,2.37
2023-01-19T14:24:33.348Z,2.30
2023-01-19T14:27:19.358Z,2.20
2023-01-19T14:29:50.479Z,2.10
2023-01-19T14:32:22.530Z,2.43
2023-01-19T14:34:54.175Z,2.60
2023-01-19T14:37:29.089Z,2.47
2023-01-19T14:40:01.579Z,3.10
2023-01-19T14:42:33.482Z,3.00
2023-01-19T14:45:04.294Z,2.57
2023-01-19T14:47:38.026Z,2.60
2023-01-19T14:50:10.879Z,2.80
2023-01-19T14:52:46.517Z,2.53
2023-01-19T14:55:22.640Z,3.20
2023-01-19T14:57:50.885Z,2.17
2023-01-19T15:00:20.852Z,2.30
2023-01-19T15:02:49.131Z,2.77
2023-01-19T15:05:17.818Z,2.60
2023-01-19T15:07:48.023Z,2.30
2023-01-19T15:10:21.463Z,2.50
2023-01-19T15:12:50.002Z,2.63
2023-01-19T15:15:19.821Z,2.30
2023-01-19T15:17:47.920Z,2.73
2023-01-19T15:20:19.033Z,3.10
2023-01-19T15:22:49.159Z,2.73
2023-01-19T15:25:19.779Z,2.87
2023-01-19T15:27:49.008Z,2.67
2023-01-19T15:30:20.532Z,2.63
2023-01-19T15:32:49.005Z,3.10
2023-01-19T15:35:21.327Z,3.40
2023-01-19T15:37:51.303Z,4.93
2023-01-19T15:40:22.815Z,4.20
2023-01-19T15:42:51.681Z,3.43
2023-01-19T15:45:33.183Z,4.57
2023-01-19T15:48:02.688Z,4.30
2023-01-19T15:50:31.138Z,4.87
2023-01-19T15:53:00.712Z,4.90
2023-01-19T15:55:28.749Z,5.00
2023-01-19T15:58:01.645Z,5.10
2023-01-19T16:00:30.914Z,3.90
2023-01-19T16:02:59.605Z,3.70
2023-01-19T16:05:41.929Z,5.73
2023-01-19T16:08:12.470Z,7.80
2023-01-19T16:10:42.764Z,3.77
2023-01-19T16:13:12.486Z,3.37
2023-01-19T16:15:42.303Z,4.70
2023-01-19T16:18:10.374Z,4.20
2023-01-19T16:20:38.630Z,5.00
2023-01-19T16:23:15.225Z,3.50
2023-01-19T16:25:45.576Z,3.60
2023-01-19T16:28:13.891Z,4.40
2023-01-19T16:30:41.878Z,4.20
2023-01-19T16:33:11.661Z,3.30
2023-01-19T16:35:41.747Z,1.80
2023-01-19T16:38:10.302Z,1.73
2023-01-19T16:40:41.425Z,1.80
2023-01-19T16:43:11.446Z,1.67
2023-01-19T16:45:58.130Z,2.50
2023-01-19T16:48:27.796Z,2.70
2023-01-19T16:51:06.582Z,2.27
2023-01-19T16:53:35.778Z,3.40
2023-01-19T16:56:06.435Z,3.30
2023-01-19T16:58:38.249Z,1.40
2023-01-19T17:01:33.584Z,1.53
2023-01-19T17:04:01.815Z,2.13
2023-01-19T17:06:30.265Z,2.53
2023-01-19T17:08:59.347Z,1.80
2023-01-19T17:11:29.344Z,1.93
2023-01-19T17:14:02.189Z,1.73
2023-01-19T17:16:32.284Z,1.77
2023-01-19T17:19:02.372Z,2.00
2023-01-19T17:21:30.936Z,2.20
2023-01-19T17:24:00.510Z,1.90
2023-01-19T17:26:31.016Z,2.40
2023-01-19T17:29:01.557Z,3.10
2023-01-19T17:31:30.263Z,3.53
2023-01-19T17:34:03.731Z,2.23
2023-01-19T17:36:33.464Z,5.30
2023-01-19T17:39:06.250Z,2.57
2023-01-19T17:41:37.612Z,4.60
2023-01-19T17:44:07.956Z,2.37
2023-01-19T17:46:39.547Z,1.87
2023-01-19T17:49:11.216Z,2.20
2023-01-19T17:51:39.776Z,2.07
2023-01-19T17:54:08.240Z,3.03
2023-01-19T17:56:38.718Z,2.63
2023-01-19T17:59:08.551Z,3.00
2023-01-19T18:01:40.138Z,2.70
2023-01-19T18:04:11.337Z,3.00
2023-01-19T18:06:40.568Z,2.10
2023-01-19T18:09:16.260Z,3.00
2023-01-19T18:11:46.414Z,2.30
2023-01-19T18:14:18.116Z,3.50
2023-01-19T18:16:48.039Z,4.53
2023-01-19T18:19:16.513Z,2.17
2023-01-19T18:21:44.471Z,5.37
2023-01-19T18:24:14.035Z,5.87
2023-01-19T18:26:43.373Z,5.17
2023-01-19T18:29:11.526Z,4.63
2023-01-19T18:31:42.882Z,4.80
2023-01-19T18:34:12.154Z,4.37
2023-01-19T18:36:40.130Z,3.90
2023-01-19T18:39:10.522Z,4.43
2023-01-19T18:41:41.957Z,3.53
2023-01-19T18:44:10.903Z,2.63
2023-01-19T18:46:45.170Z,3.23
2023-01-19T18:49:14.387Z,3.17
2023-01-19T18:51:46.062Z,3.00
2023-01-19T18:54:14.154Z,2.67
2023-01-19T18:56:42.338Z,3.10
2023-01-19T18:59:11.073Z,0.77
2023-01-19T19:01:41.634Z,0.80
2023-01-19T19:04:14.857Z,0.63
2023-01-19T19:06:43.301Z,1.00
2023-01-19T19:09:11.204Z,0.73
2023-01-19T19:11:42.447Z,0.60
2023-01-19T19:14:12.011Z,0.67
2023-01-19T19:16:44.949Z,0.73
2023-01-19T19:19:15.595Z,0.83
2023-01-19T19:21:44.662Z,0.70
2023-01-19T19:24:15.148Z,1.20
2023-01-19T19:26:44.634Z,0.63
2023-01-19T19:29:15.195Z,0.60
2023-01-19T19:31:51.136Z,0.57
2023-01-19T19:34:19.105Z,0.60
2023-01-19T19:36:50.494Z,0.40
2023-01-19T19:39:19.935Z,0.37
2023-01-19T19:41:50.035Z,0.40
2023-01-19T19:44:18.119Z,0.50
2023-01-19T19:46:47.465Z,0.50
2023-01-19T19:49:17.809Z,0.30
2023-01-19T19:51:45.881Z,0.30
2023-01-19T19:54:15.178Z,0.80
2023-01-19T19:56:43.567Z,0.50
2023-01-19T19:59:11.618Z,0.50
2023-01-19T20:01:39.773Z,0.43
2023-01-19T20:04:11.083Z,0.67
2023-01-19T20:06:42.497Z,0.80
2023-01-19T20:09:12.829Z,0.80
2023-01-19T20:11:42.257Z,0.40
2023-01-19T20:14:13.779Z,0.50
2023-01-19T20:16:41.836Z,0.50
2023-01-19T20:19:11.847Z,0.60
2023-01-19T20:21:42.945Z,1.03
2023-01-19T20:24:14.945Z,1.30
2023-01-19T20:26:45.272Z,1.03
2023-01-19T20:29:13.197Z,1.17
2023-01-19T20:31:44.505Z,1.30
2023-01-19T20:34:15.994Z,1.00
2023-01-19T20:36:49.488Z,0.93
2023-01-19T20:39:17.920Z,0.53
2023-01-19T20:41:49.504Z,0.63
2023-01-19T20:44:21.076Z,0.60
2023-01-19T20:46:49.627Z,0.83
2023-01-19T20:49:22.578Z,0.70
2023-01-19T20:51:52.423Z,0.53
2023-01-19T20:54:24.501Z,0.70
2023-01-19T20:56:52.536Z,0.50
2023-01-19T20:59:21.140Z,0.63
2023-01-19T21:01:49.652Z,0.70
2023-01-19T21:04:19.473Z,0.60
2023-01-19T21:06:47.395Z,0.80
2023-01-19T21:09:15.512Z,1.00
2023-01-19T21:11:44.016Z,0.43
2023-01-19T21:14:12.550Z,1.10
2023-01-19T21:16:42.610Z,0.80
2023-01-19T21:19:10.709Z,0.60
2023-01-19T21:21:40.295Z,0.80
2023-01-19T21:24:11.531Z,0.80
2023-01-19T21:26:41.907Z,0.80
2023-01-19T21:29:13.332Z,0.80
2023-01-19T21:31:43.417Z,0.70
2023-01-19T21:34:11.767Z,0.90
2023-01-19T21:36:41.185Z,0.87
2023-01-19T21:39:19.986Z,0.70
2023-01-19T21:41:47.936Z,1.00
2023-01-19T21:44:20.213Z,0.73
2023-01-19T21:46:48.262Z,1.87
2023-01-19T21:49:19.382Z,2.43
2023-01-19T21:51:50.657Z,3.00
2023-01-19T21:54:19.525Z,2.60
2023-01-19T21:56:47.748Z,3.20
2023-01-19T21:59:20.201Z,2.33
2023-01-19T22:01:48.508Z,2.50
2023-01-19T22:04:16.545Z,2.80
2023-01-19T22:06:44.620Z,2.53
2023-01-19T22:09:14.071Z,2.90
2023-01-19T22:11:42.022Z,2.47
2023-01-19T22:14:11.465Z,2.07
2023-01-19T22:16:41.410Z,2.23
2023-01-19T22:19:17.148Z,2.47
2023-01-19T22:21:46.660Z,3.13
2023-01-19T22:24:18.622Z,4.23
2023-01-19T22:26:49.302Z,2.80
2023-01-19T22:29:18.165Z,3.13
2023-01-19T22:31:47.023Z,1.43
2023-01-19T22:34:17.084Z,1.33
2023-01-19T22:36:45.417Z,1.40
2023-01-19T22:39:15.551Z,0.60
2023-01-19T22:41:45.935Z,1.00
2023-01-19T22:44:15.800Z,0.73
2023-01-19T22:46:43.861Z,0.60
2023-01-19T22:49:15.353Z,0.63
2023-01-19T22:51:44.385Z,0.50
2023-01-19T22:54:12.359Z,0.60
2023-01-19T22:56:42.681Z,0.80
2023-01-19T22:59:10.707Z,0.40
2023-01-19T23:01:40.192Z,0.60
2023-01-19T23:04:10.435Z,0.70
2023-01-19T23:06:39.141Z,0.40
2023-01-19T23:09:08.394Z,0.43
2023-01-19T23:11:37.935Z,0.80
2023-01-19T23:14:08.017Z,0.57
2023-01-19T23:16:36.469Z,0.70
2023-01-19T23:19:05.167Z,0.57
2023-01-19T23:21:33.525Z,0.70
2023-01-19T23:24:03.544Z,0.53
2023-01-19T23:26:37.968Z,0.60
2023-01-19T23:29:09.585Z,0.43
2023-01-19T23:31:41.595Z,0.50
2023-01-19T23:34:11.254Z,0.70
2023-01-19T23:36:41.800Z,0.50
2023-01-19T23:39:14.470Z,0.80
2023-01-19T23:41:43.031Z,0.90
2023-01-19T23:44:14.012Z,0.63
2023-01-19T23:46:43.945Z,0.80
2023-01-19T23:49:13.696Z,1.50
2023-01-19T23:51:47.685Z,0.57
2023-01-19T23:54:17.175Z,0.53
2023-01-19T23:56:48.796Z,0.77
2023-01-19T23:59:20.192Z,0.87
